Rosenort Airport

CKJ2 · 曼尼托巴, 加拿大

罗盘
风向 的 风向 340° Rosenort Airport 17/35
风: 4 kt, 2 beaufort

4 kt

1 kt
改变
0 1.000 2.000 3.000 4.000 5.000
OVC 400 ft
METAR CYWG 041300Z 34004KT 2SM BR OVC004 11/10 A3002 RMK ST8 SLP175

METAR Rosenort Airport - CKJ2

Rosenort Airport是Rosenort,加拿大中的小机场。 该机场有一条跑道: 17/35. 该领域的国际民航组织标志是CKJ2.

这份报告是针对2022年10月4日 08:00, 当地时间在Winnipeg / James Armstrong Richardson International Airport进行的。

机场观察

风向为340°,速度为4 kt。

可见度为2 mi。

有乌云密布在400 ft的高度。 破损或更高的上限为400 ft。

当前天气为薄雾。 温度和风寒是11 °C。 露点为10 °C,相对湿度为94%。 海平面上的气压为30,02 inHg (QNH)。

白天

今天,太阳从07:34升起,在19:02降落。 这适用于Rosenort Airport,世界夏令时可能有所不同。 当地时间与世界标准时间之间的时差为-5 小时。 夏令时目前正在进行中。

公司介绍

我们没有关于这个机场的公司信息。

体会

到Vliegles.nl去找飞行课程,跳伞和其他飞行体验。 浏览页面,了解Rosenort Airport附近所有可用的活动。 你也可以使用搜索功能来寻找你所在地附近的特定飞行课程、跳伞或其他飞行体验。

跑道

Id 标题 侧风 逆风 侧风 %
17/35 170°-350° 4 kt 17 %

逆风成分最大的方向会被突出显示,并用于横风计算。 这并不一定意味着这个方向在使用。

乌云

400 ft OVC 乌云密布

温度 & 天气

天气 薄雾
温度 11 °C
露点 10 °C
相对湿度 94%
Kp-index 1 (0-9)

评论

SLP175海平面压力为30,05 inHg (30,05 inHg)
ST8

白天

日出
07:34
中午
13:17
日落
19:01 (10h 43m)

小工具

你想在你的网站上有一个关于Rosenort Airport的当前航空天气(METAR)的小部件吗?

</> 显示HTML代码

我们和第三方通过cookies跟踪您在我们网站上的上网行为。如果您继续,我们认为您同意我们的cookie政策。 了解更多